Time;durP1;ratioP1;P1;durP2;ratioP2;P2;SDS_P1;SDS_P2;PMS_P1;PMS_P2;Temp;Humidity;BMP_temperature;BMP_pressure;BME280_temperature;BME280_humidity;BME280_pressure;Samples;Min_cycle;Max_cycle;Signal;HPM_P1;HPM_P2
2022/04/03 00:02:07;;;;;;;6.43;3.78;;;;;;;0.80;60.38;102145.03;5010953;28;20115;-71
2022/04/03 00:04:32;;;;;;;5.47;3.35;;;;;;;0.81;61.03;102148.53;5011803;28;20473;-71
2022/04/03 00:06:59;;;;;;;5.75;3.50;;;;;;;0.78;61.59;102152.28;5012935;28;20033;-71
2022/04/03 00:09:25;;;;;;;9.90;3.58;;;;;;;0.77;60.81;102142.63;5013324;28;20065;-71
2022/04/03 00:11:50;;;;;;;10.52;4.07;;;;;;;0.75;61.81;102149.03;5012658;28;20053;-72
2022/04/03 00:14:15;;;;;;;8.27;3.60;;;;;;;0.75;61.53;102143.72;5012647;28;20033;-71
2022/04/03 00:16:40;;;;;;;7.60;3.53;;;;;;;0.73;61.26;102145.66;5012845;28;20045;-71
2022/04/03 00:19:07;;;;;;;6.80;3.53;;;;;;;0.66;61.50;102143.50;5011605;28;20092;-71
2022/04/03 00:21:35;;;;;;;5.78;3.38;;;;;;;0.62;62.15;102138.53;5011462;28;20465;-71
2022/04/03 00:24:01;;;;;;;5.78;3.70;;;;;;;0.59;62.31;102133.47;5012294;28;20457;-71
2022/04/03 00:26:26;;;;;;;7.40;3.40;;;;;;;0.55;62.12;102138.22;5012852;28;20037;-71
2022/04/03 00:28:51;;;;;;;7.90;3.90;;;;;;;0.51;62.20;102142.97;5012176;28;20030;-71
2022/04/03 00:31:17;;;;;;;5.80;3.60;;;;;;;0.43;63.03;102134.75;5013033;28;20092;-71
2022/04/03 00:33:43;;;;;;;8.13;3.65;;;;;;;0.39;62.46;102140.47;5012400;28;20390;-70
2022/04/03 00:36:09;;;;;;;7.18;4.18;;;;;;;0.32;62.74;102140.13;5011213;28;20037;-71
2022/04/03 00:38:34;;;;;;;6.60;3.60;;;;;;;0.35;64.01;102142.53;5012672;28;20422;-71
2022/04/03 00:41:02;;;;;;;4.30;3.30;;;;;;;0.34;63.58;102135.50;5012307;28;20036;-71
2022/04/03 00:43:28;;;;;;;7.45;3.58;;;;;;;0.30;63.69;102140.25;5012550;28;20496;-71
2022/04/03 00:45:53;;;;;;;6.22;4.13;;;;;;;0.29;63.68;102135.91;5010698;28;20033;-71
2022/04/03 00:48:19;;;;;;;7.90;3.60;;;;;;;0.18;63.54;102138.56;5012605;28;20046;-71
2022/04/03 00:50:45;;;;;;;6.63;4.22;;;;;;;0.10;63.18;102144.53;5012202;28;20516;-71
2022/04/03 00:53:11;;;;;;;9.82;3.50;;;;;;;0.10;63.12;102141.84;5012309;28;20053;-71
2022/04/03 00:55:40;;;;;;;7.57;3.70;;;;;;;0.01;64.05;102137.28;5012646;28;20485;-72
2022/04/03 00:58:06;;;;;;;6.35;3.53;;;;;;;0.03;63.31;102145.16;5012494;28;20056;-71
2022/04/03 01:00:32;;;;;;;5.55;3.60;;;;;;;0.07;63.62;102139.44;5010153;28;20469;-71
2022/04/03 01:02:57;;;;;;;5.50;3.30;;;;;;;0.07;64.28;102135.94;5012523;28;20562;-71
2022/04/03 01:05:23;;;;;;;6.07;3.72;;;;;;;0.10;64.53;102144.53;5012167;28;20115;-71
2022/04/03 01:07:48;;;;;;;8.45;3.45;;;;;;;0.14;64.80;102142.47;5011949;28;20030;-71
2022/04/03 01:10:14;;;;;;;8.63;4.03;;;;;;;0.14;64.90;102140.66;5012377;28;20466;-71
2022/04/03 01:12:40;;;;;;;8.50;3.50;;;;;;;0.10;64.72;102139.19;5012084;28;20029;-71
2022/04/03 01:15:07;;;;;;;6.85;3.83;;;;;;;0.05;64.73;102136.06;5011864;28;20509;-72
2022/04/03 01:17:32;;;;;;;7.22;3.80;;;;;;;0.04;64.67;102133.53;5012068;28;20045;-71
2022/04/03 01:19:57;;;;;;;7.35;3.63;;;;;;;0.03;65.18;102132.72;5012466;28;20382;-71
2022/04/03 01:22:23;;;;;;;5.18;3.88;;;;;;;0.03;64.45;102132.72;5012055;28;20033;-71
2022/04/03 01:24:55;;;;;;;6.57;3.85;;;;;;;0.02;65.88;102135.50;5012068;28;20055;-71
2022/04/03 01:27:21;;;;;;;6.60;3.63;;;;;;;0.02;64.59;102135.50;5010188;28;20531;-71
2022/04/03 01:29:48;;;;;;;5.72;3.63;;;;;;;-0.05;64.94;102135.97;5011765;28;20113;-71
2022/04/03 01:32:13;;;;;;;9.05;3.70;;;;;;;-0.08;65.03;102130.06;5011882;28;20037;-71
2022/04/03 01:34:38;;;;;;;7.55;3.95;;;;;;;-0.16;65.09;102133.34;5012241;28;20369;-71
2022/04/03 01:37:04;;;;;;;6.40;3.67;;;;;;;-0.20;65.22;102135.41;5011637;28;20030;-71
2022/04/03 01:39:30;;;;;;;7.72;3.50;;;;;;;-0.22;65.45;102128.50;5010448;28;20049;-71
2022/04/03 01:41:55;;;;;;;8.82;3.88;;;;;;;-0.24;65.62;102128.63;5011813;28;20026;-71
2022/04/03 01:44:21;;;;;;;6.30;4.18;;;;;;;-0.19;65.81;102128.25;5011689;28;20030;-71
2022/04/03 01:46:46;;;;;;;7.07;4.15;;;;;;;-0.22;66.17;102129.34;5011510;28;20071;-71
2022/04/03 01:49:11;;;;;;;8.82;3.95;;;;;;;-0.19;66.03;102125.59;5011823;28;20052;-71
2022/04/03 01:51:37;;;;;;;7.55;3.90;;;;;;;-0.26;65.87;102122.56;5011530;28;20033;-71
2022/04/03 01:54:02;;;;;;;6.88;4.03;;;;;;;-0.28;66.04;102127.16;5014250;28;20052;-71
2022/04/03 01:56:28;;;;;;;7.05;4.00;;;;;;;-0.35;66.08;102125.97;5015642;28;20088;-71
2022/04/03 01:58:53;;;;;;;6.78;3.80;;;;;;;-0.44;66.17;102124.03;5015187;28;20038;-71
2022/04/03 02:01:19;;;;;;;10.30;4.20;;;;;;;-0.45;66.20;102133.84;5013153;28;20033;-71
2022/04/03 02:03:46;;;;;;;11.32;4.28;;;;;;;-0.41;66.28;102126.44;5014851;28;20469;-71
2022/04/03 02:06:13;;;;;;;8.13;3.72;;;;;;;-0.36;66.06;102121.63;5015245;28;20045;-71
2022/04/03 02:08:38;;;;;;;6.50;3.50;;;;;;;-0.41;66.47;102124.66;5018815;28;20073;-71
2022/04/03 02:11:03;;;;;;;6.18;3.85;;;;;;;-0.42;66.97;102122.13;5015062;28;20429;-71
2022/04/03 02:13:29;;;;;;;7.50;4.35;;;;;;;-0.45;66.33;102115.22;5014653;28;20390;-71
2022/04/03 02:15:54;;;;;;;5.50;3.58;;;;;;;-0.51;66.55;102123.69;5014655;28;20053;-71
2022/04/03 02:18:19;;;;;;;6.28;3.97;;;;;;;-0.56;66.76;102118.72;5030194;28;20034;-71
2022/04/03 02:20:44;;;;;;;7.70;4.03;;;;;;;-0.53;66.35;102120.28;5014759;28;20064;-71
2022/04/03 02:23:11;;;;;;;7.85;4.20;;;;;;;-0.54;66.75;102119.44;5010898;28;20069;-71
2022/04/03 02:25:36;;;;;;;7.10;4.18;;;;;;;-0.51;66.73;102121.03;4995550;28;20145;-71
2022/04/03 02:28:03;;;;;;;8.57;4.32;;;;;;;-0.52;66.56;102119.31;5008651;28;20521;-71
2022/04/03 02:30:28;;;;;;;5.32;3.85;;;;;;;-0.52;66.36;102121.16;5014272;28;20030;-71
2022/04/03 02:32:54;;;;;;;6.05;3.95;;;;;;;-0.57;66.98;102117.03;5014104;28;20034;-71
2022/04/03 02:35:19;;;;;;;8.00;4.68;;;;;;;-0.59;67.49;102113.66;5015363;28;20052;-71
2022/04/03 02:37:45;;;;;;;9.93;4.32;;;;;;;-0.56;67.20;102116.06;5014794;28;20033;-71
2022/04/03 02:40:13;;;;;;;7.00;3.88;;;;;;;-0.55;66.82;102115.09;5014395;28;20546;-71
2022/04/03 02:42:39;;;;;;;7.47;4.32;;;;;;;-0.58;67.94;102117.97;5014502;28;20065;-71
2022/04/03 02:45:05;;;;;;;6.70;4.20;;;;;;;-0.66;67.22;102115.09;5014047;28;20065;-71
2022/04/03 02:47:32;;;;;;;8.77;4.20;;;;;;;-0.72;67.24;102113.75;5014528;28;20025;-71
2022/04/03 02:49:58;;;;;;;9.52;4.65;;;;;;;-0.71;67.27;102109.28;5014211;28;20477;-71
2022/04/03 02:52:23;;;;;;;5.32;4.05;;;;;;;-0.74;67.48;102122.81;5013248;28;20108;-71
2022/04/03 02:54:49;;;;;;;10.27;4.55;;;;;;;-0.84;67.36;102121.84;5013936;28;20430;-71
2022/04/03 02:57:16;;;;;;;8.57;4.38;;;;;;;-0.92;68.12;102119.75;5014100;28;20034;-71
2022/04/03 02:59:42;;;;;;;8.32;4.90;;;;;;;-0.90;68.61;102124.00;5014351;28;20112;-71
2022/04/03 03:02:07;;;;;;;7.28;4.28;;;;;;;-0.93;68.01;102128.72;5011323;28;20559;-72
2022/04/03 03:04:35;;;;;;;8.05;4.57;;;;;;;-0.92;68.22;102117.97;5012601;28;20030;-71
2022/04/03 03:07:01;;;;;;;7.35;4.70;;;;;;;-0.98;68.78;102122.88;5045484;28;20101;-71
2022/04/03 03:09:26;;;;;;;8.00;4.50;;;;;;;-1.00;68.33;102123.00;5014241;28;20469;-71
2022/04/03 03:11:51;;;;;;;8.25;4.40;;;;;;;-0.92;68.74;102131.25;5013775;28;20034;-71
2022/04/03 03:14:16;;;;;;;7.78;4.07;;;;;;;-0.90;68.31;102134.63;5013919;28;20030;-71
2022/04/03 03:16:42;;;;;;;11.20;4.57;;;;;;;-0.93;68.04;102129.56;5014140;28;20484;-71
2022/04/03 03:19:08;;;;;;;7.70;4.60;;;;;;;-0.98;68.63;102130.88;5013875;28;20045;-71
2022/04/03 03:21:34;;;;;;;9.98;4.72;;;;;;;-1.00;68.84;102132.81;5013898;28;20041;-71
2022/04/03 03:24:00;;;;;;;6.95;4.65;;;;;;;-0.98;68.65;102128.22;5013671;28;20034;-71
2022/04/03 03:26:25;;;;;;;9.05;4.72;;;;;;;-0.95;68.93;102128.84;5013746;28;20041;-70
2022/04/03 03:28:50;;;;;;;9.30;4.72;;;;;;;-0.98;68.83;102139.69;5013553;28;20026;-71
2022/04/03 03:31:15;;;;;;;11.30;4.28;;;;;;;-0.97;68.42;102146.69;5013437;28;20055;-71
2022/04/03 03:33:41;;;;;;;6.25;4.53;;;;;;;-1.01;68.63;102131.97;5013504;28;20040;-71
2022/04/03 03:36:09;;;;;;;7.63;4.50;;;;;;;-0.95;69.25;102134.16;5013052;28;20362;-71
2022/04/03 03:38:35;;;;;;;10.15;4.35;;;;;;;-1.00;67.97;102133.63;5012281;28;20037;-71
2022/04/03 03:41:00;;;;;;;6.53;4.35;;;;;;;-1.01;68.73;102133.75;5021218;28;20030;-71
2022/04/03 03:43:25;;;;;;;8.55;4.35;;;;;;;-1.07;68.39;102138.59;5033234;28;20397;-71
2022/04/03 03:45:50;;;;;;;8.65;4.80;;;;;;;-1.07;68.86;102140.41;5018611;28;20425;-71
2022/04/03 03:48:16;;;;;;;8.30;4.40;;;;;;;-1.09;68.54;102142.31;5012380;28;20481;-71
2022/04/03 03:50:41;;;;;;;5.97;4.57;;;;;;;-1.14;68.97;102137.34;5013558;28;20021;-71
2022/04/03 03:53:06;;;;;;;8.93;4.93;;;;;;;-1.12;68.88;102134.56;5013346;28;20598;-71
2022/04/03 03:55:32;;;;;;;10.27;4.50;;;;;;;-1.16;68.54;102139.28;5012812;28;20038;-71
2022/04/03 03:57:57;;;;;;;6.03;4.40;;;;;;;-1.16;69.10;102139.28;5013205;28;20120;-71
2022/04/03 04:00:22;;;;;;;7.07;4.70;;;;;;;-1.16;69.33;102138.41;5011633;28;20084;-71
2022/04/03 04:02:47;;;;;;;12.77;4.60;;;;;;;-1.20;69.16;102136.97;5012709;28;20037;-71
2022/04/03 04:05:13;;;;;;;7.55;4.28;;;;;;;-1.23;68.96;102137.22;5013027;28;20062;-71
2022/04/03 04:07:42;;;;;;;10.27;5.03;;;;;;;-1.30;69.56;102137.69;5013325;28;20449;-71
2022/04/03 04:10:09;;;;;;;10.18;5.25;;;;;;;-1.26;69.53;102141.78;5027690;28;20402;-71
2022/04/03 04:12:35;;;;;;;7.03;4.45;;;;;;;-1.29;69.11;102139.34;5012887;28;20032;-71
2022/04/03 04:15:01;;;;;;;8.57;4.53;;;;;;;-1.26;69.12;102143.59;5012109;28;20109;-71
2022/04/03 04:17:26;;;;;;;6.35;4.70;;;;;;;-1.26;69.09;102133.81;5012766;28;20029;-71
2022/04/03 04:19:52;;;;;;;9.63;4.55;;;;;;;-1.23;69.35;102142.53;5012552;28;20066;-71
2022/04/03 04:22:17;;;;;;;7.53;4.10;;;;;;;-1.26;69.29;102140.94;5012668;28;20026;-71
2022/04/03 04:24:42;;;;;;;6.93;4.57;;;;;;;-1.31;69.90;102138.63;5012869;28;20092;-71
2022/04/03 04:27:08;;;;;;;8.68;4.95;;;;;;;-1.35;69.05;102139.81;5012440;28;20080;-71
2022/04/03 04:29:33;;;;;;;5.53;4.35;;;;;;;-1.36;69.19;102137.28;5012563;28;20460;-71
2022/04/03 04:31:58;;;;;;;8.23;4.68;;;;;;;-1.36;69.66;102146.13;5012510;28;20029;-71
2022/04/03 04:34:23;;;;;;;7.25;4.53;;;;;;;-1.35;69.53;102145.13;5012081;28;20087;-71
2022/04/03 04:36:49;;;;;;;10.48;4.63;;;;;;;-1.35;69.46;102149.59;5012648;28;20033;-71
2022/04/03 04:39:14;;;;;;;9.15;4.93;;;;;;;-1.43;69.58;102143.06;5012304;28;20040;-71
2022/04/03 04:41:40;;;;;;;6.55;4.60;;;;;;;-1.47;69.63;102152.19;5012849;28;20085;-71
2022/04/03 04:44:06;;;;;;;7.78;4.63;;;;;;;-1.50;70.06;102157.72;5012281;28;20465;-71
2022/04/03 04:46:31;;;;;;;10.38;4.93;;;;;;;-1.51;70.30;102155.19;5012391;28;20068;-71
2022/04/03 04:48:57;;;;;;;8.63;4.88;;;;;;;-1.56;70.12;102146.72;5011169;28;20465;-71
2022/04/03 04:51:22;;;;;;;13.38;4.93;;;;;;;-1.56;70.99;102150.22;5012813;28;20131;-71
2022/04/03 04:53:47;;;;;;;9.25;5.28;;;;;;;-1.54;70.87;102150.13;5011285;28;20045;-71
2022/04/03 04:56:13;;;;;;;11.43;5.18;;;;;;;-1.55;70.54;102151.09;5012078;28;20037;-71
2022/04/03 04:58:38;;;;;;;8.85;5.10;;;;;;;-1.56;71.08;102152.03;5012166;28;20037;-71
2022/04/03 05:01:04;;;;;;;10.07;5.15;;;;;;;-1.62;70.79;102156.00;5010085;28;20049;-71
2022/04/03 05:03:29;;;;;;;12.65;5.32;;;;;;;-1.67;70.76;102161.63;5012092;28;20447;-71
2022/04/03 05:05:56;;;;;;;13.27;5.13;;;;;;;-1.67;70.86;102174.91;5012011;28;20084;-71
2022/04/03 05:08:21;;;;;;;9.88;5.60;;;;;;;-1.64;70.66;102180.00;5012200;28;20040;-71
2022/04/03 05:10:46;;;;;;;11.02;5.50;;;;;;;-1.59;71.05;102176.16;5012302;28;20030;-71
2022/04/03 05:13:12;;;;;;;8.48;5.05;;;;;;;-1.59;70.93;102169.03;5027225;28;20042;-71
2022/04/03 05:15:37;;;;;;;12.15;5.50;;;;;;;-1.57;70.95;102166.25;5026976;28;20038;-71
2022/04/03 05:18:03;;;;;;;13.27;5.40;;;;;;;-1.62;70.67;102180.72;5011958;28;20416;-71
2022/04/03 05:20:29;;;;;;;7.22;4.93;;;;;;;-1.61;71.20;102181.59;5012311;28;20026;-71
2022/04/03 05:22:54;;;;;;;12.57;5.40;;;;;;;-1.69;71.33;102182.16;5011815;28;20026;-70
2022/04/03 05:25:20;;;;;;;8.85;5.35;;;;;;;-1.73;71.23;102180.66;5012126;28;20512;-71
2022/04/03 05:27:45;;;;;;;10.65;5.30;;;;;;;-1.67;71.06;102177.56;5013163;28;20119;-71
2022/04/03 05:30:12;;;;;;;7.50;5.13;;;;;;;-1.57;71.68;102180.41;5015810;28;20178;-71
2022/04/03 05:32:37;;;;;;;9.25;5.15;;;;;;;-1.52;71.14;102174.75;5015528;28;20037;-71
2022/04/03 05:35:04;;;;;;;10.85;5.35;;;;;;;-1.52;70.99;102178.25;5015518;28;20466;-71
2022/04/03 05:37:29;;;;;;;13.88;5.50;;;;;;;-1.54;71.48;102184.63;5014583;28;20452;-71
2022/04/03 05:39:54;;;;;;;9.57;5.68;;;;;;;-1.56;71.69;102189.22;5015997;28;20069;-71
2022/04/03 05:42:20;;;;;;;10.65;5.22;;;;;;;-1.49;71.45;102190.47;5015698;28;20034;-71
2022/04/03 05:44:46;;;;;;;12.30;5.70;;;;;;;-1.45;71.64;102191.91;5015675;28;20056;-71
2022/04/03 05:47:11;;;;;;;10.18;5.13;;;;;;;-1.44;71.74;102193.63;5015425;28;20577;-71
2022/04/03 05:49:37;;;;;;;14.88;5.75;;;;;;;-1.32;71.71;102197.16;5015252;28;20094;-71
2022/04/03 05:52:03;;;;;;;13.18;5.53;;;;;;;-1.27;71.75;102195.00;5014465;28;20069;-71
2022/04/03 05:54:28;;;;;;;13.80;5.60;;;;;;;-1.25;72.08;102204.56;5015276;28;20042;-71
2022/04/03 05:56:53;;;;;;;8.82;5.80;;;;;;;-1.22;71.72;102192.00;5014845;28;20091;-71
2022/04/03 05:59:19;;;;;;;11.82;5.90;;;;;;;-1.14;71.76;102193.13;5015551;28;20034;-71
2022/04/03 06:01:46;;;;;;;9.13;5.63;;;;;;;-1.11;72.22;102190.25;5013432;28;20030;-71
2022/04/03 06:04:11;;;;;;;12.32;5.82;;;;;;;-1.07;72.00;102201.50;5015034;28;20030;-71
2022/04/03 06:06:36;;;;;;;9.38;5.90;;;;;;;-0.95;71.82;102205.91;5015470;28;20141;-71
2022/04/03 06:09:01;;;;;;;16.25;6.28;;;;;;;-0.88;71.82;102206.25;5014825;28;20033;-70
2022/04/03 06:11:27;;;;;;;13.48;6.35;;;;;;;-0.87;71.72;102207.97;5015686;28;20034;-71
2022/04/03 06:13:52;;;;;;;14.30;5.53;;;;;;;-0.79;71.62;102215.34;5014665;28;20038;-71
2022/04/03 06:16:17;;;;;;;17.02;5.63;;;;;;;-0.77;71.83;102206.31;5015092;28;20033;-71
2022/04/03 06:18:43;;;;;;;10.00;5.40;;;;;;;-0.73;71.43;102214.88;5014986;28;20037;-71
2022/04/03 06:21:09;;;;;;;15.93;5.38;;;;;;;-0.72;71.78;102211.28;5013938;28;20058;-71
2022/04/03 06:23:34;;;;;;;15.90;5.97;;;;;;;-0.70;71.50;102221.78;5014787;28;20486;-71
2022/04/03 06:25:59;;;;;;;15.02;5.50;;;;;;;-0.71;71.98;102215.59;5014122;28;20036;-71
2022/04/03 06:28:25;;;;;;;12.95;5.10;;;;;;;-0.72;71.90;102219.25;5014269;28;20120;-71
2022/04/03 06:30:51;;;;;;;10.98;6.00;;;;;;;-0.71;72.36;102218.25;5014556;28;20030;-71
2022/04/03 06:33:17;;;;;;;13.00;5.53;;;;;;;-0.67;72.76;102210.91;5013938;28;20029;-71
2022/04/03 06:35:43;;;;;;;12.15;5.60;;;;;;;-0.61;71.85;102205.97;5014792;28;20492;-71
2022/04/03 06:38:09;;;;;;;11.07;5.50;;;;;;;-0.56;72.07;102210.94;5013971;28;20477;-71
2022/04/03 06:40:35;;;;;;;13.15;5.57;;;;;;;-0.46;72.50;102205.75;5014808;28;20036;-71
2022/04/03 06:43:01;;;;;;;10.27;6.25;;;;;;;-0.40;72.52;102207.94;5014236;28;20061;-71
2022/04/03 06:45:27;;;;;;;10.80;5.90;;;;;;;-0.35;72.16;102203.09;5014845;28;20062;-71
2022/04/03 06:47:52;;;;;;;9.48;5.45;;;;;;;-0.28;72.34;102198.16;5014763;28;20029;-71
2022/04/03 06:50:19;;;;;;;11.52;5.85;;;;;;;-0.23;71.78;102203.94;5014170;28;20038;-71
2022/04/03 06:52:44;;;;;;;10.88;6.13;;;;;;;-0.19;72.87;102208.91;5013790;28;20050;-71
2022/04/03 06:55:10;;;;;;;12.35;5.95;;;;;;;-0.13;72.49;102206.75;5014053;28;20386;-71
2022/04/03 06:57:36;;;;;;;8.93;5.90;;;;;;;-0.08;72.62;102213.38;5014144;28;20038;-71
2022/04/03 07:00:04;;;;;;;11.02;5.85;;;;;;;-0.03;72.56;102207.69;5014114;28;20034;-71
2022/04/03 07:02:29;;;;;;;14.13;6.20;;;;;;;0.03;72.97;102209.88;5012430;28;20611;-71
2022/04/03 07:04:55;;;;;;;7.68;5.85;;;;;;;0.08;72.95;102207.69;5013230;28;20038;-72
2022/04/03 07:07:22;;;;;;;14.93;6.63;;;;;;;0.10;73.49;102208.41;5013758;28;20382;-72
2022/04/03 07:09:47;;;;;;;15.35;11.27;;;;;;;0.17;73.44;102208.78;5014222;28;20037;-71
2022/04/03 07:12:14;;;;;;;15.13;10.52;;;;;;;0.22;73.49;102211.06;5013397;28;20034;-71
2022/04/03 07:14:39;;;;;;;10.93;9.15;;;;;;;0.25;73.64;102210.81;5013754;28;20034;-71
2022/04/03 07:17:04;;;;;;;14.50;9.65;;;;;;;0.34;74.31;102212.75;5013772;28;20048;-71
2022/04/03 07:19:29;;;;;;;12.57;8.60;;;;;;;0.43;74.45;102213.81;5013775;28;20040;-71
2022/04/03 07:21:56;;;;;;;13.32;8.80;;;;;;;0.46;74.35;102209.06;5012730;28;20041;-71
2022/04/03 07:24:22;;;;;;;15.70;8.73;;;;;;;0.52;74.81;102215.72;5028744;28;20372;-71
2022/04/03 07:26:47;;;;;;;17.08;8.82;;;;;;;0.58;74.31;102211.72;5013257;28;20046;-71
2022/04/03 07:29:12;;;;;;;15.55;8.32;;;;;;;0.62;74.04;102215.81;5013499;28;20041;-71
2022/04/03 07:31:37;;;;;;;17.02;9.20;;;;;;;0.72;74.58;102216.75;5013540;28;20440;-71
2022/04/03 07:34:03;;;;;;;20.35;8.88;;;;;;;0.80;74.78;102216.97;5013189;28;20113;-71
2022/04/03 07:36:30;;;;;;;14.57;9.00;;;;;;;0.90;74.80;102219.69;5013281;28;20449;-72
2022/04/03 07:38:56;;;;;;;14.10;8.88;;;;;;;0.97;75.36;102222.72;5013602;28;20034;-72
2022/04/03 07:41:21;;;;;;;13.75;8.50;;;;;;;1.07;75.38;102223.63;5013356;28;20021;-71
2022/04/03 07:43:47;;;;;;;14.93;8.82;;;;;;;1.18;75.84;102226.25;5013545;28;20450;-72
2022/04/03 07:46:16;;;;;;;11.02;8.55;;;;;;;1.31;74.90;102223.38;5013285;28;20030;-71
2022/04/03 07:48:42;;;;;;;11.43;7.85;;;;;;;1.42;75.35;102226.00;5013396;28;20034;-72
2022/04/03 07:51:07;;;;;;;10.27;7.57;;;;;;;1.49;74.73;102228.97;5012469;28;20038;-71
2022/04/03 07:53:33;;;;;;;12.25;7.35;;;;;;;1.56;75.04;102224.81;5028094;28;20072;-70
2022/04/03 07:55:58;;;;;;;10.38;7.00;;;;;;;1.64;74.90;102228.63;5013089;28;20478;-70
2022/04/03 07:58:23;;;;;;;10.73;6.78;;;;;;;1.74;74.03;102224.19;5012691;28;20492;-70
2022/04/03 08:00:48;;;;;;;9.98;6.38;;;;;;;1.84;73.96;102221.56;5010665;28;20034;-70
2022/04/03 08:03:14;;;;;;;7.13;5.53;;;;;;;1.92;72.71;102224.44;5028145;28;20033;-77
2022/04/03 08:05:40;;;;;;;9.57;5.70;;;;;;;2.00;72.00;102226.41;5012999;28;20022;-74
2022/04/03 08:08:06;;;;;;;6.72;5.20;;;;;;;2.10;71.88;102227.31;5013031;28;20040;-79
2022/04/03 08:10:31;;;;;;;9.80;5.28;;;;;;;2.21;72.37;102223.69;5011686;28;20533;-72
2022/04/03 08:12:56;;;;;;;11.07;5.22;;;;;;;2.28;70.57;102228.34;5012868;28;20528;-77
2022/04/03 08:15:22;;;;;;;7.53;4.00;;;;;;;2.36;68.04;102226.81;4995355;28;20041;-74
2022/04/03 08:17:47;;;;;;;9.70;4.03;;;;;;;2.44;69.06;102224.28;5028193;28;20084;-74
2022/04/03 08:20:16;;;;;;;5.90;3.25;;;;;;;2.54;67.48;102227.84;5011581;28;20026;-73
2022/04/03 08:22:42;;;;;;;7.63;3.95;;;;;;;2.58;68.23;102229.25;5016217;28;20040;-73
2022/04/03 08:25:08;;;;;;;5.30;2.17;;;;;;;2.72;64.63;102240.50;5011993;28;20124;-73
2022/04/03 08:27:44;;;;;;;6.75;2.75;;;;;;;2.81;65.49;102237.03;5028012;28;20145;-74
2022/04/03 08:30:14;;;;;;;5.97;2.90;;;;;;;2.86;64.62;102236.59;5012843;28;20072;-73
2022/04/03 08:32:40;;;;;;;4.78;2.78;;;;;;;2.91;65.76;102239.69;5011775;28;20088;-71
2022/04/03 08:35:06;;;;;;;6.97;2.75;;;;;;;2.97;65.01;102239.13;5012702;28;20101;-71
2022/04/03 08:37:32;;;;;;;4.72;2.20;;;;;;;3.12;63.25;102239.53;5012896;28;20045;-71
2022/04/03 08:39:57;;;;;;;3.47;2.30;;;;;;;3.14;63.85;102241.09;5013110;28;20061;-71
2022/04/03 08:42:22;;;;;;;5.80;1.90;;;;;;;3.19;62.78;102238.84;5011094;28;20040;-71
2022/04/03 08:44:47;;;;;;;4.53;2.40;;;;;;;3.28;63.62;102239.81;5012816;28;20029;-72
2022/04/03 08:47:17;;;;;;;4.65;2.10;;;;;;;3.37;62.49;102238.13;5011044;28;20041;-71
2022/04/03 08:49:44;;;;;;;4.05;2.33;;;;;;;3.45;63.53;102235.56;5012331;28;20038;-72
2022/04/03 08:52:12;;;;;;;3.35;2.10;;;;;;;3.49;63.01;102247.69;4995171;28;20058;-72
2022/04/03 08:54:38;;;;;;;4.40;2.38;;;;;;;3.54;62.81;102248.06;5018080;28;20044;-72
2022/04/03 08:57:03;;;;;;;3.50;2.35;;;;;;;3.59;63.21;102242.28;5011207;28;20030;-72
2022/04/03 08:59:30;;;;;;;4.93;2.50;;;;;;;3.70;62.71;102252.00;5011883;28;20040;-73
2022/04/03 09:01:55;;;;;;;7.00;2.70;;;;;;;3.74;62.72;102245.34;5009467;28;20219;-73
2022/04/03 09:04:23;;;;;;;4.32;2.80;;;;;;;3.84;61.77;102237.31;5015505;28;20038;-75
2022/04/03 09:06:57;;;;;;;4.32;2.90;;;;;;;3.86;62.63;102243.34;5018051;28;20092;-72
2022/04/03 09:09:26;;;;;;;4.03;2.80;;;;;;;3.93;62.27;102232.91;5019931;28;20065;-72
2022/04/03 09:12:12;;;;;;;4.82;2.75;;;;;;;4.04;62.91;102238.06;5018692;28;20057;-76
2022/04/03 09:15:11;;;;;;;5.78;3.00;;;;;;;4.11;62.25;102235.63;5007821;28;20057;-75
2022/04/03 09:17:40;;;;;;;6.25;2.75;;;;;;;4.18;61.74;102234.03;5005175;28;20050;-72
2022/04/03 09:20:07;;;;;;;8.80;2.80;;;;;;;4.25;62.03;102233.28;5016309;28;20060;-73
2022/04/03 09:22:35;;;;;;;7.28;2.15;;;;;;;4.38;60.79;102227.59;5015941;28;20026;-74
2022/04/03 09:25:04;;;;;;;4.75;2.15;;;;;;;4.42;59.70;102212.91;5015886;28;20062;-74
2022/04/03 09:27:33;;;;;;;4.38;2.20;;;;;;;4.47;58.84;102219.63;5015842;28;20417;-73
2022/04/03 09:30:07;;;;;;;3.50;2.20;;;;;;;4.41;58.80;102211.22;5015831;28;20405;-73
2022/04/03 09:32:33;;;;;;;5.57;2.38;;;;;;;4.42;59.62;102218.28;4998245;28;20116;-74
2022/04/03 09:34:59;;;;;;;3.20;2.25;;;;;;;4.53;59.41;102214.53;5016005;28;20034;-76
2022/04/03 09:37:25;;;;;;;4.50;2.50;;;;;;;4.60;58.99;102214.75;5015546;28;20462;-75
2022/04/03 09:39:50;;;;;;;4.45;2.28;;;;;;;4.70;59.45;102217.38;5015977;28;20120;-73
2022/04/03 09:42:17;;;;;;;6.70;2.38;;;;;;;4.94;59.15;102212.22;5015103;28;20543;-78
2022/04/03 09:44:44;;;;;;;3.05;1.63;;;;;;;5.06;57.21;102212.84;5014757;28;20057;-72
2022/04/03 09:47:13;;;;;;;2.70;1.40;;;;;;;5.08;56.34;102218.88;5030997;28;20112;-71
2022/04/03 09:49:39;;;;;;;2.33;1.48;;;;;;;5.02;55.61;102216.00;5015830;28;20347;-71
2022/04/03 09:52:04;;;;;;;3.90;1.80;;;;;;;4.97;56.28;102211.09;5015385;28;20558;-73
2022/04/03 09:54:30;;;;;;;2.03;1.50;;;;;;;4.91;55.72;102201.81;5014512;28;20100;-72
2022/04/03 09:56:55;;;;;;;3.67;1.40;;;;;;;5.01;56.32;102211.63;5015795;28;20041;-74
2022/04/03 09:59:21;;;;;;;2.10;1.67;;;;;;;5.14;57.12;102199.47;5015263;28;20048;-75
2022/04/03 10:01:56;;;;;;;5.45;1.70;;;;;;;5.32;56.14;102193.25;5013103;28;20037;-76
2022/04/03 10:04:23;;;;;;;5.40;1.67;;;;;;;5.46;53.76;102187.28;5015130;28;20041;-72
2022/04/03 10:06:48;;;;;;;4.20;1.48;;;;;;;5.58;53.63;102198.59;5015830;28;20065;-74
2022/04/03 10:09:15;;;;;;;3.42;1.40;;;;;;;5.52;52.13;102182.31;5014777;28;20022;-74
2022/04/03 10:11:42;;;;;;;3.28;1.38;;;;;;;5.53;52.17;102194.72;5015547;28;20046;-76
2022/04/03 10:14:09;;;;;;;3.05;1.50;;;;;;;5.48;53.39;102179.94;5014847;28;20030;-76
2022/04/03 10:16:34;;;;;;;6.47;1.50;;;;;;;5.43;54.13;102184.91;5014996;28;20041;-72
2022/04/03 10:19:00;;;;;;;4.28;1.85;;;;;;;5.50;54.76;102175.25;5014804;28;20030;-72
2022/04/03 10:21:41;;;;;;;5.38;1.40;;;;;;;5.63;53.24;102171.28;5015150;28;20048;-71
2022/04/03 10:24:18;;;;;;;2.70;1.20;;;;;;;5.65;51.29;102180.03;5015275;28;20025;-72
2022/04/03 10:26:50;;;;;;;4.45;1.38;;;;;;;5.61;53.29;102175.97;5014963;28;20030;-75
2022/04/03 10:29:16;;;;;;;4.68;1.50;;;;;;;5.60;52.90;102174.28;5014666;28;20036;-71
2022/04/03 10:31:55;;;;;;;3.50;1.60;;;;;;;5.69;54.44;102173.31;5015218;28;20108;-73
2022/04/03 10:34:21;;;;;;;4.60;1.40;;;;;;;5.84;54.05;102170.88;5030127;28;20041;-72
2022/04/03 10:36:49;;;;;;;3.83;1.67;;;;;;;6.01;53.16;102171.84;5013806;28;20034;-72
2022/04/03 10:39:23;;;;;;;6.50;1.88;;;;;;;6.21;53.36;102167.84;5014008;28;20084;-72
2022/04/03 10:41:48;;;;;;;2.80;1.38;;;;;;;6.23;50.36;102164.16;5014773;28;20041;-72
2022/04/03 10:44:22;;;;;;;1.70;1.50;;;;;;;6.18;50.24;102162.81;5014791;28;20025;-72
2022/04/03 10:47:02;;;;;;;4.82;1.63;;;;;;;6.19;50.81;102171.72;5014775;28;20026;-70
2022/04/03 10:49:36;;;;;;;5.32;1.50;;;;;;;6.11;50.77;102167.16;5014343;28;20030;-72
2022/04/03 10:52:07;;;;;;;4.32;2.60;;;;;;;6.09;52.02;102162.97;5014451;28;20486;-70
2022/04/03 10:54:44;;;;;;;4.20;1.75;;;;;;;6.14;52.66;102153.38;5029133;28;20025;-71
2022/04/03 10:57:34;;;;;;;3.85;1.75;;;;;;;6.15;51.59;102162.31;5014287;28;20405;-72
2022/04/03 11:00:20;;;;;;;3.55;1.65;;;;;;;6.21;52.24;102159.78;5014240;28;20030;-72
2022/04/03 11:02:51;;;;;;;5.20;1.80;;;;;;;6.05;52.82;102162.41;5005519;28;20041;-74
2022/04/03 11:05:22;;;;;;;3.03;1.60;;;;;;;5.97;52.80;102160.56;5013980;28;20046;-72
2022/04/03 11:08:10;;;;;;;4.70;1.83;;;;;;;5.91;51.74;102163.03;5014440;28;20679;-71
2022/04/03 11:10:54;;;;;;;4.10;1.73;;;;;;;5.92;52.84;102157.50;4982093;28;20054;-72
2022/04/03 11:13:25;;;;;;;6.20;1.33;;;;;;;5.90;51.37;102150.59;4994095;28;20057;-71
2022/04/03 11:16:00;;;;;;;6.00;1.40;;;;;;;5.89;50.87;102152.44;4994395;28;20381;-74
2022/04/03 11:18:26;;;;;;;2.22;1.13;;;;;;;5.90;51.05;102142.53;4994302;28;20067;-73
2022/04/03 11:21:08;;;;;;;3.95;1.40;;;;;;;5.98;52.27;102145.28;5007933;28;20029;-72
2022/04/03 11:23:42;;;;;;;3.33;1.20;;;;;;;5.95;50.49;102140.19;5014168;28;20049;-70
2022/04/03 11:26:08;;;;;;;5.10;1.50;;;;;;;5.95;50.27;102141.03;5029117;28;20036;-71